• Join FlightAware (Why Join?)
  • Login
  • US Flag 
08:06AM EDT


 

Airport Tracker/Info


-or-


 

Live Flight TrackerFlight Track Log ✈ USC105 ✈ 01-May-2013 ✈ KBKL - KYIP

Flight Track Log - Related Links

Times and Time Zones

All times are in EDT time to prevent confusion due to time zone crossing. See the USC105 flight status page for this flight to view local times or setup timezone preferences in your user account.

Time Position Orientation Groundspeed Altitude Reporting Facility
EDT Latitude Longitude Course Direction KTS MPH feet Rate Location/Type
11:10PM 41.5519 -81.7125 314° West 164 189 1,900  Level Cleveland Center
11:11PM 41.5831 -81.7544 315° West 155 178 3,000 780 Climbing Cleveland Center
11:12PM 41.6075 -81.8078 302° West 169 194 3,500 480 Climbing Cleveland Center
11:13PM 41.6297 -81.8667 297° West 161 185 4,000 600 Climbing Cleveland Center
11:14PM 41.6456 -81.9253 290° West 177 204 4,800 780 Climbing Cleveland Center
11:15PM 41.6681 -81.9758 301° West 162 186 5,600 600 Climbing Cleveland Center
11:16PM 41.6903 -82.0292 299° West 170 196 6,100 180 Climbing Cleveland Center
11:17PM 41.7122 -82.0936 295° West 192 221 6,000 -60 Descending Cleveland Center
11:18PM 41.7364 -82.1581 297° West 197 227 6,000  Level Cleveland Center
11:19PM 41.7583 -82.2283 293° West 205 236 6,000  Level Cleveland Center
11:20PM 41.7886 -82.3069 297° West 204 235 6,000  Level Cleveland Center
11:21PM 41.8125 -82.3772 295° West 204 235 6,000  Level Cleveland Center
11:22PM 41.8325 -82.4281 298° West 204 235 6,000  Level Cleveland Center
11:23PM 41.8606 -82.5042 296° West 207 238 6,000  Level Cleveland Center
11:24PM 41.8922 -82.5914 296° West 208 239 6,000  Level Cleveland Center
11:25PM 41.9222 -82.6622 300° West 206 237 6,000  Level Cleveland Center
11:26PM 41.9500 -82.7469 294° West 206 237 6,000  Level Cleveland Center
11:27PM 41.9758 -82.8092 299° West 206 237 6,000  Level Cleveland Center
11:28PM 42.0014 -82.8828 295° West 206 237 6,000  Level Cleveland Center
11:29PM 42.0231 -82.9506 293° West 205 236 6,000  Level Cleveland Center
11:30PM 42.0486 -83.0242 295° West 204 235 6,000 -360 Level Cleveland Center
11:31PM 42.0847 -83.0872 308° West 219 252 5,300 -480 Descending Cleveland Center
11:32PM 42.1250 -83.1506 311° West 214 246 5,100 -180 Descending Cleveland Center
11:33PM 42.1592 -83.2078 309° West 190 219 5,000 -60 Descending Cleveland Center
11:34PM 42.1892 -83.2622 307° West 183 211 5,000  Level Cleveland Center
11:35PM 42.2172 -83.3111 308° West 177 204 5,100  Climbing Cleveland Center
11:36PM 42.2453 -83.3628 306° West 168 193 5,000 -660 Descending Cleveland Center
11:37PM 42.2772 -83.4178 308° West 198 228 3,800 -1,140 Descending Cleveland Center
11:39PM 42.2906 -83.4658 291° West 159 183 2,600 -1,080 Descending Cleveland Center
11:39PM 42.2714 -83.4847 216° Southwest 111 128 1,800 -1,020 Descending Cleveland Center
11:41PM 42.2333 -83.5167 270° West  Level FlightAware Approximate
11:48PM 42.2393 -83.5310 270° West  Level Estimated
11:49PM 42.2393 -83.5310 270° West  Level Estimated